sensor_id;sensor_type;location;lat;lon;timestamp;temperature;humidity
4374;DHT22;2201;51.100;6.814;2022-08-20T00:00:29;22.40;98.20
4374;DHT22;2201;51.100;6.814;2022-08-20T00:03:13;22.30;98.20
4374;DHT22;2201;51.100;6.814;2022-08-20T00:06:07;22.30;98.20
4374;DHT22;2201;51.100;6.814;2022-08-20T00:09:02;22.40;98.20
4374;DHT22;2201;51.100;6.814;2022-08-20T00:11:52;22.30;98.20
4374;DHT22;2201;51.100;6.814;2022-08-20T00:18:47;22.20;98.20
4374;DHT22;2201;51.100;6.814;2022-08-20T00:21:32;22.20;98.20
4374;DHT22;2201;51.100;6.814;2022-08-20T00:24:23;22.10;98.20
4374;DHT22;2201;51.100;6.814;2022-08-20T00:27:00;22.00;98.20
4374;DHT22;2201;51.100;6.814;2022-08-20T00:29:35;22.00;98.20
4374;DHT22;2201;51.100;6.814;2022-08-20T00:32:07;21.90;98.20
4374;DHT22;2201;51.100;6.814;2022-08-20T00:38:36;21.90;98.20
4374;DHT22;2201;51.100;6.814;2022-08-20T00:41:28;21.80;98.20
4374;DHT22;2201;51.100;6.814;2022-08-20T00:44:48;21.80;98.20
4374;DHT22;2201;51.100;6.814;2022-08-20T00:47:17;21.70;98.20
4374;DHT22;2201;51.100;6.814;2022-08-20T00:49:45;21.60;98.20
4374;DHT22;2201;51.100;6.814;2022-08-20T00:52:27;21.60;98.20
4374;DHT22;2201;51.100;6.814;2022-08-20T00:54:58;21.60;98.20
4374;DHT22;2201;51.100;6.814;2022-08-20T00:57:30;21.60;98.20
4374;DHT22;2201;51.100;6.814;2022-08-20T01:00:10;21.60;98.20
4374;DHT22;2201;51.100;6.814;2022-08-20T01:02:59;21.50;98.20
4374;DHT22;2201;51.100;6.814;2022-08-20T01:05:50;21.50;98.20
4374;DHT22;2201;51.100;6.814;2022-08-20T01:10:14;21.50;98.20
4374;DHT22;2201;51.100;6.814;2022-08-20T01:12:43;21.50;98.20
4374;DHT22;2201;51.100;6.814;2022-08-20T01:15:28;21.50;98.20
4374;DHT22;2201;51.100;6.814;2022-08-20T01:18:06;21.50;98.20
4374;DHT22;2201;51.100;6.814;2022-08-20T01:20:38;21.50;98.20
4374;DHT22;2201;51.100;6.814;2022-08-20T01:23:27;21.50;98.20
4374;DHT22;2201;51.100;6.814;2022-08-20T01:29:34;21.50;98.20
4374;DHT22;2201;51.100;6.814;2022-08-20T01:32:04;21.40;98.20
4374;DHT22;2201;51.100;6.814;2022-08-20T01:34:31;21.40;98.20
4374;DHT22;2201;51.100;6.814;2022-08-20T01:36:58;21.40;98.20
4374;DHT22;2201;51.100;6.814;2022-08-20T01:39:29;21.40;98.20
4374;DHT22;2201;51.100;6.814;2022-08-20T01:45:45;21.30;98.20
4374;DHT22;2201;51.100;6.814;2022-08-20T01:48:13;21.30;98.20
4374;DHT22;2201;51.100;6.814;2022-08-20T01:50:51;21.30;98.20
4374;DHT22;2201;51.100;6.814;2022-08-20T01:53:27;21.30;98.20
4374;DHT22;2201;51.100;6.814;2022-08-20T01:56:19;21.30;98.20
4374;DHT22;2201;51.100;6.814;2022-08-20T01:58:52;21.30;98.20
4374;DHT22;2201;51.100;6.814;2022-08-20T02:01:26;21.30;98.20
4374;DHT22;2201;51.100;6.814;2022-08-20T02:03:54;21.20;98.20
4374;DHT22;2201;51.100;6.814;2022-08-20T02:06:23;21.20;98.20
4374;DHT22;2201;51.100;6.814;2022-08-20T02:08:53;21.20;98.20
4374;DHT22;2201;51.100;6.814;2022-08-20T02:11:21;21.20;98.20
4374;DHT22;2201;51.100;6.814;2022-08-20T02:13:49;21.20;98.20
4374;DHT22;2201;51.100;6.814;2022-08-20T02:16:19;21.20;98.20
4374;DHT22;2201;51.100;6.814;2022-08-20T02:18:49;21.20;98.20
4374;DHT22;2201;51.100;6.814;2022-08-20T02:21:19;21.20;98.20
4374;DHT22;2201;51.100;6.814;2022-08-20T02:23:47;21.20;98.20
4374;DHT22;2201;51.100;6.814;2022-08-20T02:26:15;21.20;98.20
4374;DHT22;2201;51.100;6.814;2022-08-20T02:28:44;21.20;98.20
4374;DHT22;2201;51.100;6.814;2022-08-20T02:31:15;21.20;98.20
4374;DHT22;2201;51.100;6.814;2022-08-20T02:33:43;21.20;98.20
4374;DHT22;2201;51.100;6.814;2022-08-20T02:36:15;21.20;98.20
4374;DHT22;2201;51.100;6.814;2022-08-20T02:38:51;21.20;98.20
4374;DHT22;2201;51.100;6.814;2022-08-20T02:41:18;21.20;98.20
4374;DHT22;2201;51.100;6.814;2022-08-20T02:43:46;21.20;98.20
4374;DHT22;2201;51.100;6.814;2022-08-20T02:46:14;21.20;98.20
4374;DHT22;2201;51.100;6.814;2022-08-20T02:48:43;21.20;98.20
4374;DHT22;2201;51.100;6.814;2022-08-20T02:51:11;21.20;98.20
4374;DHT22;2201;51.100;6.814;2022-08-20T02:53:40;21.20;98.20
4374;DHT22;2201;51.100;6.814;2022-08-20T02:56:09;21.20;98.20
4374;DHT22;2201;51.100;6.814;2022-08-20T02:58:36;21.20;98.20
4374;DHT22;2201;51.100;6.814;2022-08-20T03:01:07;21.20;98.20
4374;DHT22;2201;51.100;6.814;2022-08-20T03:03:36;21.20;98.20
4374;DHT22;2201;51.100;6.814;2022-08-20T03:06:04;21.20;98.20
4374;DHT22;2201;51.100;6.814;2022-08-20T03:08:34;21.20;98.20
4374;DHT22;2201;51.100;6.814;2022-08-20T03:11:02;21.20;98.20
4374;DHT22;2201;51.100;6.814;2022-08-20T03:13:29;21.10;98.20
4374;DHT22;2201;51.100;6.814;2022-08-20T03:15:59;21.10;98.20
4374;DHT22;2201;51.100;6.814;2022-08-20T03:18:30;21.10;98.20
4374;DHT22;2201;51.100;6.814;2022-08-20T03:20:57;21.10;98.20
4374;DHT22;2201;51.100;6.814;2022-08-20T03:23:25;21.10;98.20
4374;DHT22;2201;51.100;6.814;2022-08-20T03:25:57;21.10;98.20
4374;DHT22;2201;51.100;6.814;2022-08-20T03:28:25;21.10;98.20
4374;DHT22;2201;51.100;6.814;2022-08-20T03:30:53;21.10;98.20
4374;DHT22;2201;51.100;6.814;2022-08-20T03:33:21;21.10;98.20
4374;DHT22;2201;51.100;6.814;2022-08-20T03:35:51;21.10;98.20
4374;DHT22;2201;51.100;6.814;2022-08-20T03:38:21;21.10;98.20
4374;DHT22;2201;51.100;6.814;2022-08-20T03:40:50;21.10;98.20
4374;DHT22;2201;51.100;6.814;2022-08-20T03:43:18;21.10;98.20
4374;DHT22;2201;51.100;6.814;2022-08-20T03:45:45;21.10;98.20
4374;DHT22;2201;51.100;6.814;2022-08-20T03:48:18;21.10;98.20
4374;DHT22;2201;51.100;6.814;2022-08-20T03:50:46;21.10;98.20
4374;DHT22;2201;51.100;6.814;2022-08-20T03:53:16;21.10;98.20
4374;DHT22;2201;51.100;6.814;2022-08-20T03:55:45;21.10;98.20
4374;DHT22;2201;51.100;6.814;2022-08-20T03:58:13;21.10;98.20
4374;DHT22;2201;51.100;6.814;2022-08-20T04:00:46;21.10;98.20
4374;DHT22;2201;51.100;6.814;2022-08-20T04:03:15;21.00;98.20
4374;DHT22;2201;51.100;6.814;2022-08-20T04:05:43;21.00;98.20
4374;DHT22;2201;51.100;6.814;2022-08-20T04:08:13;20.90;98.20
4374;DHT22;2201;51.100;6.814;2022-08-20T04:10:41;20.90;98.20
4374;DHT22;2201;51.100;6.814;2022-08-20T04:13:12;20.90;98.20
4374;DHT22;2201;51.100;6.814;2022-08-20T04:15:40;20.90;98.20
4374;DHT22;2201;51.100;6.814;2022-08-20T04:18:19;20.90;98.20
4374;DHT22;2201;51.100;6.814;2022-08-20T04:21:01;20.90;98.20
4374;DHT22;2201;51.100;6.814;2022-08-20T04:23:35;20.90;98.20
4374;DHT22;2201;51.100;6.814;2022-08-20T04:26:27;20.90;98.20
4374;DHT22;2201;51.100;6.814;2022-08-20T04:29:05;20.90;98.20
4374;DHT22;2201;51.100;6.814;2022-08-20T04:31:36;20.90;98.20
4374;DHT22;2201;51.100;6.814;2022-08-20T04:34:10;20.90;98.20
4374;DHT22;2201;51.100;6.814;2022-08-20T04:36:38;20.90;98.20
4374;DHT22;2201;51.100;6.814;2022-08-20T04:39:06;20.90;98.20
4374;DHT22;2201;51.100;6.814;2022-08-20T04:41:34;20.90;98.20
4374;DHT22;2201;51.100;6.814;2022-08-20T04:44:04;20.90;98.20
4374;DHT22;2201;51.100;6.814;2022-08-20T04:46:31;20.90;98.20
4374;DHT22;2201;51.100;6.814;2022-08-20T04:49:00;20.90;98.20
4374;DHT22;2201;51.100;6.814;2022-08-20T04:51:30;20.90;98.20
4374;DHT22;2201;51.100;6.814;2022-08-20T04:53:59;20.90;98.20
4374;DHT22;2201;51.100;6.814;2022-08-20T04:56:29;20.90;98.20
4374;DHT22;2201;51.100;6.814;2022-08-20T04:58:58;20.90;98.20
4374;DHT22;2201;51.100;6.814;2022-08-20T05:10:57;20.80;98.20
4374;DHT22;2201;51.100;6.814;2022-08-20T05:13:32;20.80;98.20
4374;DHT22;2201;51.100;6.814;2022-08-20T05:16:17;20.80;98.20
4374;DHT22;2201;51.100;6.814;2022-08-20T05:18:51;20.70;98.20
4374;DHT22;2201;51.100;6.814;2022-08-20T05:21:19;20.70;98.20
4374;DHT22;2201;51.100;6.814;2022-08-20T05:23:55;20.70;98.20
4374;DHT22;2201;51.100;6.814;2022-08-20T05:26:30;20.60;98.20
4374;DHT22;2201;51.100;6.814;2022-08-20T05:28:57;20.60;98.20
4374;DHT22;2201;51.100;6.814;2022-08-20T05:31:25;20.60;98.20
4374;DHT22;2201;51.100;6.814;2022-08-20T05:33:52;20.50;98.20
4374;DHT22;2201;51.100;6.814;2022-08-20T05:36:21;20.50;98.20
4374;DHT22;2201;51.100;6.814;2022-08-20T05:38:48;20.60;98.20
4374;DHT22;2201;51.100;6.814;2022-08-20T05:41:17;20.60;98.20
4374;DHT22;2201;51.100;6.814;2022-08-20T05:43:47;20.60;98.20
4374;DHT22;2201;51.100;6.814;2022-08-20T05:46:46;20.60;98.20
4374;DHT22;2201;51.100;6.814;2022-08-20T05:49:49;20.60;98.20
4374;DHT22;2201;51.100;6.814;2022-08-20T05:52:17;20.60;98.20
4374;DHT22;2201;51.100;6.814;2022-08-20T05:54:44;20.70;98.20
4374;DHT22;2201;51.100;6.814;2022-08-20T05:57:11;20.70;98.20
4374;DHT22;2201;51.100;6.814;2022-08-20T05:59:45;20.70;98.20
4374;DHT22;2201;51.100;6.814;2022-08-20T06:02:13;20.70;98.20
4374;DHT22;2201;51.100;6.814;2022-08-20T06:04:54;20.70;98.20
4374;DHT22;2201;51.100;6.814;2022-08-20T06:07:21;20.70;98.20
4374;DHT22;2201;51.100;6.814;2022-08-20T06:09:49;20.70;98.20
4374;DHT22;2201;51.100;6.814;2022-08-20T06:12:16;20.70;98.20
4374;DHT22;2201;51.100;6.814;2022-08-20T06:14:45;20.70;98.20
4374;DHT22;2201;51.100;6.814;2022-08-20T06:17:14;20.80;98.20
4374;DHT22;2201;51.100;6.814;2022-08-20T06:19:44;20.80;98.20
4374;DHT22;2201;51.100;6.814;2022-08-20T06:22:12;20.80;98.20
4374;DHT22;2201;51.100;6.814;2022-08-20T06:28:13;20.90;98.20
4374;DHT22;2201;51.100;6.814;2022-08-20T06:30:42;20.90;98.20
4374;DHT22;2201;51.100;6.814;2022-08-20T06:33:09;20.90;98.20
4374;DHT22;2201;51.100;6.814;2022-08-20T06:35:36;20.90;98.20
4374;DHT22;2201;51.100;6.814;2022-08-20T06:38:04;21.00;98.20
4374;DHT22;2201;51.100;6.814;2022-08-20T06:40:31;21.00;98.20
4374;DHT22;2201;51.100;6.814;2022-08-20T06:42:59;21.10;98.20
4374;DHT22;2201;51.100;6.814;2022-08-20T06:45:28;21.10;98.20
4374;DHT22;2201;51.100;6.814;2022-08-20T06:47:59;21.10;98.20
4374;DHT22;2201;51.100;6.814;2022-08-20T06:50:30;21.10;98.20
4374;DHT22;2201;51.100;6.814;2022-08-20T06:52:58;21.20;98.20
4374;DHT22;2201;51.100;6.814;2022-08-20T06:55:26;21.20;98.20
4374;DHT22;2201;51.100;6.814;2022-08-20T07:01:10;21.10;98.20
4374;DHT22;2201;51.100;6.814;2022-08-20T07:03:40;21.10;98.20
4374;DHT22;2201;51.100;6.814;2022-08-20T07:06:07;21.10;98.20
4374;DHT22;2201;51.100;6.814;2022-08-20T07:08:35;21.10;98.20
4374;DHT22;2201;51.100;6.814;2022-08-20T07:11:03;21.10;98.20
4374;DHT22;2201;51.100;6.814;2022-08-20T07:13:30;21.10;98.20
4374;DHT22;2201;51.100;6.814;2022-08-20T07:15:57;21.00;98.20
4374;DHT22;2201;51.100;6.814;2022-08-20T07:18:25;21.00;98.20
4374;DHT22;2201;51.100;6.814;2022-08-20T07:20:53;21.00;98.20
4374;DHT22;2201;51.100;6.814;2022-08-20T07:23:21;21.00;98.20
4374;DHT22;2201;51.100;6.814;2022-08-20T07:25:52;21.00;98.20
4374;DHT22;2201;51.100;6.814;2022-08-20T07:28:23;21.10;98.20
4374;DHT22;2201;51.100;6.814;2022-08-20T07:30:53;21.20;98.20
4374;DHT22;2201;51.100;6.814;2022-08-20T07:33:38;21.40;98.20
4374;DHT22;2201;51.100;6.814;2022-08-20T07:36:08;21.60;98.20
4374;DHT22;2201;51.100;6.814;2022-08-20T07:38:35;21.70;98.20
4374;DHT22;2201;51.100;6.814;2022-08-20T07:41:05;21.70;98.20
4374;DHT22;2201;51.100;6.814;2022-08-20T07:44:06;21.60;98.20
4374;DHT22;2201;51.100;6.814;2022-08-20T07:47:02;21.70;98.20
4374;DHT22;2201;51.100;6.814;2022-08-20T07:49:35;21.70;98.20
4374;DHT22;2201;51.100;6.814;2022-08-20T07:52:06;21.80;98.20
4374;DHT22;2201;51.100;6.814;2022-08-20T07:54:34;21.80;98.20
4374;DHT22;2201;51.100;6.814;2022-08-20T07:57:03;21.70;98.20
4374;DHT22;2201;51.100;6.814;2022-08-20T07:59:43;21.70;98.20
4374;DHT22;2201;51.100;6.814;2022-08-20T08:02:11;21.70;98.20
4374;DHT22;2201;51.100;6.814;2022-08-20T08:04:39;21.70;98.20
4374;DHT22;2201;51.100;6.814;2022-08-20T08:07:08;21.70;98.20
4374;DHT22;2201;51.100;6.814;2022-08-20T08:09:46;21.70;98.20
4374;DHT22;2201;51.100;6.814;2022-08-20T08:15:45;21.60;98.20
4374;DHT22;2201;51.100;6.814;2022-08-20T08:18:15;21.60;98.20
4374;DHT22;2201;51.100;6.814;2022-08-20T08:20:47;21.50;98.20
4374;DHT22;2201;51.100;6.814;2022-08-20T08:23:35;21.50;98.20
4374;DHT22;2201;51.100;6.814;2022-08-20T08:26:17;21.50;98.20
4374;DHT22;2201;51.100;6.814;2022-08-20T08:28:46;21.50;98.20
4374;DHT22;2201;51.100;6.814;2022-08-20T08:31:14;21.60;98.20
4374;DHT22;2201;51.100;6.814;2022-08-20T08:33:56;21.80;98.20
4374;DHT22;2201;51.100;6.814;2022-08-20T08:36:29;21.90;98.20
4374;DHT22;2201;51.100;6.814;2022-08-20T08:38:58;22.00;98.20
4374;DHT22;2201;51.100;6.814;2022-08-20T08:41:29;22.10;98.20
4374;DHT22;2201;51.100;6.814;2022-08-20T08:44:05;22.10;98.20
4374;DHT22;2201;51.100;6.814;2022-08-20T08:46:42;22.20;98.20
4374;DHT22;2201;51.100;6.814;2022-08-20T08:49:37;22.10;98.20
4374;DHT22;2201;51.100;6.814;2022-08-20T08:52:11;22.00;98.20
4374;DHT22;2201;51.100;6.814;2022-08-20T08:54:57;22.00;98.20
4374;DHT22;2201;51.100;6.814;2022-08-20T08:57:34;21.90;98.20
4374;DHT22;2201;51.100;6.814;2022-08-20T09:00:09;22.00;98.20
4374;DHT22;2201;51.100;6.814;2022-08-20T09:02:38;22.00;98.20
4374;DHT22;2201;51.100;6.814;2022-08-20T09:05:13;22.00;98.20
4374;DHT22;2201;51.100;6.814;2022-08-20T09:11:20;22.10;98.20
4374;DHT22;2201;51.100;6.814;2022-08-20T09:14:44;22.10;98.20
4374;DHT22;2201;51.100;6.814;2022-08-20T09:17:20;22.20;98.20
4374;DHT22;2201;51.100;6.814;2022-08-20T09:19:58;22.30;98.20
4374;DHT22;2201;51.100;6.814;2022-08-20T09:22:29;22.30;98.20
4374;DHT22;2201;51.100;6.814;2022-08-20T09:25:02;22.30;98.20
4374;DHT22;2201;51.100;6.814;2022-08-20T09:27:32;22.20;98.20
4374;DHT22;2201;51.100;6.814;2022-08-20T09:29:59;22.30;98.20
4374;DHT22;2201;51.100;6.814;2022-08-20T09:32:32;22.40;98.20
4374;DHT22;2201;51.100;6.814;2022-08-20T09:35:17;22.40;98.20
4374;DHT22;2201;51.100;6.814;2022-08-20T09:37:45;22.40;98.20
4374;DHT22;2201;51.100;6.814;2022-08-20T09:40:13;22.40;98.20
4374;DHT22;2201;51.100;6.814;2022-08-20T09:42:42;22.30;98.20
4374;DHT22;2201;51.100;6.814;2022-08-20T09:45:21;22.30;98.20
4374;DHT22;2201;51.100;6.814;2022-08-20T09:47:49;22.30;98.20
4374;DHT22;2201;51.100;6.814;2022-08-20T09:50:17;22.30;98.20
4374;DHT22;2201;51.100;6.814;2022-08-20T09:52:57;22.30;98.20
4374;DHT22;2201;51.100;6.814;2022-08-20T09:55:41;22.30;98.20
4374;DHT22;2201;51.100;6.814;2022-08-20T10:02:09;22.40;98.20
4374;DHT22;2201;51.100;6.814;2022-08-20T10:04:36;22.50;98.20
4374;DHT22;2201;51.100;6.814;2022-08-20T10:07:06;22.50;98.20
4374;DHT22;2201;51.100;6.814;2022-08-20T10:09:35;22.50;98.20
4374;DHT22;2201;51.100;6.814;2022-08-20T10:12:03;22.40;98.20
4374;DHT22;2201;51.100;6.814;2022-08-20T10:14:32;22.50;98.20
4374;DHT22;2201;51.100;6.814;2022-08-20T10:17:00;22.60;98.20
4374;DHT22;2201;51.100;6.814;2022-08-20T10:19:29;22.60;98.20
4374;DHT22;2201;51.100;6.814;2022-08-20T10:21:58;22.70;98.20
4374;DHT22;2201;51.100;6.814;2022-08-20T10:24:27;22.80;98.20
4374;DHT22;2201;51.100;6.814;2022-08-20T10:26:56;22.90;98.20
4374;DHT22;2201;51.100;6.814;2022-08-20T10:29:28;22.90;98.20
4374;DHT22;2201;51.100;6.814;2022-08-20T10:32:07;23.00;98.20
4374;DHT22;2201;51.100;6.814;2022-08-20T10:34:37;23.10;98.20
4374;DHT22;2201;51.100;6.814;2022-08-20T10:37:05;23.30;98.20
4374;DHT22;2201;51.100;6.814;2022-08-20T10:39:34;23.30;98.20
4374;DHT22;2201;51.100;6.814;2022-08-20T10:42:02;23.20;98.20
4374;DHT22;2201;51.100;6.814;2022-08-20T10:44:30;23.30;98.20
4374;DHT22;2201;51.100;6.814;2022-08-20T10:47:15;23.30;98.20
4374;DHT22;2201;51.100;6.814;2022-08-20T10:49:43;23.40;98.20
4374;DHT22;2201;51.100;6.814;2022-08-20T10:52:11;23.50;98.20
4374;DHT22;2201;51.100;6.814;2022-08-20T10:55:13;23.50;98.20
4374;DHT22;2201;51.100;6.814;2022-08-20T10:57:41;23.60;98.20
4374;DHT22;2201;51.100;6.814;2022-08-20T11:00:11;23.70;98.10
4374;DHT22;2201;51.100;6.814;2022-08-20T11:02:44;23.80;97.20
4374;DHT22;2201;51.100;6.814;2022-08-20T11:05:16;23.80;97.40
4374;DHT22;2201;51.100;6.814;2022-08-20T11:07:44;23.90;98.00
4374;DHT22;2201;51.100;6.814;2022-08-20T11:10:12;23.90;97.80
4374;DHT22;2201;51.100;6.814;2022-08-20T11:12:43;24.20;97.70
4374;DHT22;2201;51.100;6.814;2022-08-20T11:15:11;24.50;97.70
4374;DHT22;2201;51.100;6.814;2022-08-20T11:17:41;24.70;95.30
4374;DHT22;2201;51.100;6.814;2022-08-20T11:20:13;24.70;95.00
4374;DHT22;2201;51.100;6.814;2022-08-20T11:22:41;24.80;94.60
4374;DHT22;2201;51.100;6.814;2022-08-20T11:25:13;24.80;94.50
4374;DHT22;2201;51.100;6.814;2022-08-20T11:27:43;24.90;94.90
4374;DHT22;2201;51.100;6.814;2022-08-20T11:30:14;25.00;94.40
4374;DHT22;2201;51.100;6.814;2022-08-20T11:32:43;24.90;94.30
4374;DHT22;2201;51.100;6.814;2022-08-20T11:35:12;24.80;95.20
4374;DHT22;2201;51.100;6.814;2022-08-20T11:37:40;25.10;96.00
4374;DHT22;2201;51.100;6.814;2022-08-20T11:40:10;25.60;93.60
4374;DHT22;2201;51.100;6.814;2022-08-20T11:42:46;26.10;91.60
4374;DHT22;2201;51.100;6.814;2022-08-20T11:45:18;26.50;90.70
4374;DHT22;2201;51.100;6.814;2022-08-20T11:47:46;26.70;88.90
4374;DHT22;2201;51.100;6.814;2022-08-20T11:50:17;26.70;88.40
4374;DHT22;2201;51.100;6.814;2022-08-20T11:53:12;26.90;89.00
4374;DHT22;2201;51.100;6.814;2022-08-20T11:55:40;27.10;88.20
4374;DHT22;2201;51.100;6.814;2022-08-20T11:58:10;27.40;88.30
4374;DHT22;2201;51.100;6.814;2022-08-20T12:00:38;27.80;87.70
4374;DHT22;2201;51.100;6.814;2022-08-20T12:03:07;28.10;85.30
4374;DHT22;2201;51.100;6.814;2022-08-20T12:05:38;28.30;84.40
4374;DHT22;2201;51.100;6.814;2022-08-20T12:08:06;28.20;83.30
4374;DHT22;2201;51.100;6.814;2022-08-20T12:10:35;28.00;82.50
4374;DHT22;2201;51.100;6.814;2022-08-20T12:13:03;28.00;83.00
4374;DHT22;2201;51.100;6.814;2022-08-20T12:15:32;28.20;82.80
4374;DHT22;2201;51.100;6.814;2022-08-20T12:18:04;28.40;82.60
4374;DHT22;2201;51.100;6.814;2022-08-20T12:20:33;28.60;81.80
4374;DHT22;2201;51.100;6.814;2022-08-20T12:23:04;28.70;79.30
4374;DHT22;2201;51.100;6.814;2022-08-20T12:25:33;28.80;80.10
4374;DHT22;2201;51.100;6.814;2022-08-20T12:28:00;28.90;79.90
4374;DHT22;2201;51.100;6.814;2022-08-20T12:30:30;29.20;80.00
4374;DHT22;2201;51.100;6.814;2022-08-20T12:32:59;29.40;78.30
4374;DHT22;2201;51.100;6.814;2022-08-20T12:35:27;29.60;76.90
4374;DHT22;2201;51.100;6.814;2022-08-20T12:37:55;29.60;75.80
4374;DHT22;2201;51.100;6.814;2022-08-20T12:40:26;29.50;75.90
4374;DHT22;2201;51.100;6.814;2022-08-20T12:42:55;29.40;76.20
4374;DHT22;2201;51.100;6.814;2022-08-20T12:45:23;29.10;77.00
4374;DHT22;2201;51.100;6.814;2022-08-20T12:47:55;28.70;78.50
4374;DHT22;2201;51.100;6.814;2022-08-20T12:50:26;28.60;78.50
4374;DHT22;2201;51.100;6.814;2022-08-20T12:52:55;28.60;78.90
4374;DHT22;2201;51.100;6.814;2022-08-20T12:55:24;28.60;78.30
4374;DHT22;2201;51.100;6.814;2022-08-20T12:57:54;28.70;78.70
4374;DHT22;2201;51.100;6.814;2022-08-20T13:00:25;28.90;76.70
4374;DHT22;2201;51.100;6.814;2022-08-20T13:02:55;28.70;77.00
4374;DHT22;2201;51.100;6.814;2022-08-20T13:05:27;28.70;77.40
4374;DHT22;2201;51.100;6.814;2022-08-20T13:07:56;28.70;75.50
4374;DHT22;2201;51.100;6.814;2022-08-20T13:10:26;28.80;76.60
4374;DHT22;2201;51.100;6.814;2022-08-20T13:12:54;29.00;74.80
4374;DHT22;2201;51.100;6.814;2022-08-20T13:15:22;28.90;74.40
4374;DHT22;2201;51.100;6.814;2022-08-20T13:17:50;28.90;75.20
4374;DHT22;2201;51.100;6.814;2022-08-20T13:20:18;29.00;74.10
4374;DHT22;2201;51.100;6.814;2022-08-20T13:22:46;29.20;75.30
4374;DHT22;2201;51.100;6.814;2022-08-20T13:25:13;29.40;74.60
4374;DHT22;2201;51.100;6.814;2022-08-20T13:27:43;29.50;71.50
4374;DHT22;2201;51.100;6.814;2022-08-20T13:30:13;29.40;72.50
4374;DHT22;2201;51.100;6.814;2022-08-20T13:32:42;29.50;70.90
4374;DHT22;2201;51.100;6.814;2022-08-20T13:35:11;29.50;70.10
4374;DHT22;2201;51.100;6.814;2022-08-20T13:37:40;29.50;70.30
4374;DHT22;2201;51.100;6.814;2022-08-20T13:40:10;29.60;70.40
4374;DHT22;2201;51.100;6.814;2022-08-20T13:42:38;29.60;70.20
4374;DHT22;2201;51.100;6.814;2022-08-20T13:45:09;29.60;69.40
4374;DHT22;2201;51.100;6.814;2022-08-20T13:47:38;29.70;70.10
4374;DHT22;2201;51.100;6.814;2022-08-20T13:50:09;29.80;69.90
4374;DHT22;2201;51.100;6.814;2022-08-20T13:52:41;29.90;70.80
4374;DHT22;2201;51.100;6.814;2022-08-20T13:55:11;29.90;70.10
4374;DHT22;2201;51.100;6.814;2022-08-20T13:57:39;29.80;70.50
4374;DHT22;2201;51.100;6.814;2022-08-20T14:00:13;29.90;71.50
4374;DHT22;2201;51.100;6.814;2022-08-20T14:02:42;30.00;70.80
4374;DHT22;2201;51.100;6.814;2022-08-20T14:05:16;30.00;68.70
4374;DHT22;2201;51.100;6.814;2022-08-20T14:08:04;29.70;69.50
4374;DHT22;2201;51.100;6.814;2022-08-20T14:10:33;29.70;70.40
4374;DHT22;2201;51.100;6.814;2022-08-20T14:13:01;29.80;70.20
4374;DHT22;2201;51.100;6.814;2022-08-20T14:15:33;29.90;69.50
4374;DHT22;2201;51.100;6.814;2022-08-20T14:18:01;29.70;67.80
4374;DHT22;2201;51.100;6.814;2022-08-20T14:20:32;29.50;67.60
4374;DHT22;2201;51.100;6.814;2022-08-20T14:23:00;29.40;69.00
4374;DHT22;2201;51.100;6.814;2022-08-20T14:25:30;29.50;68.90
4374;DHT22;2201;51.100;6.814;2022-08-20T14:27:58;29.70;70.10
4374;DHT22;2201;51.100;6.814;2022-08-20T14:30:28;30.00;67.50
4374;DHT22;2201;51.100;6.814;2022-08-20T14:32:57;30.10;67.10
4374;DHT22;2201;51.100;6.814;2022-08-20T14:35:24;30.30;66.60
4374;DHT22;2201;51.100;6.814;2022-08-20T14:37:53;30.30;64.70
4374;DHT22;2201;51.100;6.814;2022-08-20T14:40:23;30.20;66.70
4374;DHT22;2201;51.100;6.814;2022-08-20T14:42:51;30.10;65.90
4374;DHT22;2201;51.100;6.814;2022-08-20T14:45:19;30.00;65.20
4374;DHT22;2201;51.100;6.814;2022-08-20T14:47:49;30.10;66.10
4374;DHT22;2201;51.100;6.814;2022-08-20T14:50:20;30.20;65.50
4374;DHT22;2201;51.100;6.814;2022-08-20T14:52:48;30.10;64.80
4374;DHT22;2201;51.100;6.814;2022-08-20T14:55:18;30.10;62.50
4374;DHT22;2201;51.100;6.814;2022-08-20T14:57:46;30.00;64.70
4374;DHT22;2201;51.100;6.814;2022-08-20T15:00:18;30.00;63.60
4374;DHT22;2201;51.100;6.814;2022-08-20T15:02:46;29.90;64.40
4374;DHT22;2201;51.100;6.814;2022-08-20T15:05:15;30.00;65.20
4374;DHT22;2201;51.100;6.814;2022-08-20T15:07:45;30.10;65.70
4374;DHT22;2201;51.100;6.814;2022-08-20T15:10:17;30.20;66.20
4374;DHT22;2201;51.100;6.814;2022-08-20T15:12:45;30.20;63.90
4374;DHT22;2201;51.100;6.814;2022-08-20T15:15:14;30.10;64.00
4374;DHT22;2201;51.100;6.814;2022-08-20T15:17:44;30.10;65.00
4374;DHT22;2201;51.100;6.814;2022-08-20T15:20:14;29.90;65.00
4374;DHT22;2201;51.100;6.814;2022-08-20T15:22:45;29.90;63.20
4374;DHT22;2201;51.100;6.814;2022-08-20T15:28:31;29.80;64.90
4374;DHT22;2201;51.100;6.814;2022-08-20T15:30:58;29.80;65.50
4374;DHT22;2201;51.100;6.814;2022-08-20T15:33:26;29.90;66.70
4374;DHT22;2201;51.100;6.814;2022-08-20T15:36:05;30.00;65.70
4374;DHT22;2201;51.100;6.814;2022-08-20T15:38:48;30.00;65.20
4374;DHT22;2201;51.100;6.814;2022-08-20T15:41:16;30.00;65.80
4374;DHT22;2201;51.100;6.814;2022-08-20T15:43:43;30.10;65.80
4374;DHT22;2201;51.100;6.814;2022-08-20T15:46:10;30.10;65.20
4374;DHT22;2201;51.100;6.814;2022-08-20T15:48:40;30.10;65.40
4374;DHT22;2201;51.100;6.814;2022-08-20T15:51:22;30.10;65.60
4374;DHT22;2201;51.100;6.814;2022-08-20T15:53:58;30.00;64.60
4374;DHT22;2201;51.100;6.814;2022-08-20T15:56:51;29.80;64.70
4374;DHT22;2201;51.100;6.814;2022-08-20T15:59:44;29.80;66.80
4374;DHT22;2201;51.100;6.814;2022-08-20T16:05:15;29.80;66.30
4374;DHT22;2201;51.100;6.814;2022-08-20T16:07:53;29.60;65.20
4374;DHT22;2201;51.100;6.814;2022-08-20T16:10:33;29.20;66.60
4374;DHT22;2201;51.100;6.814;2022-08-20T16:13:11;29.00;66.60
4374;DHT22;2201;51.100;6.814;2022-08-20T16:15:44;28.90;67.80
4374;DHT22;2201;51.100;6.814;2022-08-20T16:18:25;28.90;67.40
4374;DHT22;2201;51.100;6.814;2022-08-20T16:20:57;28.80;66.10
4374;DHT22;2201;51.100;6.814;2022-08-20T16:23:30;28.80;67.60
4374;DHT22;2201;51.100;6.814;2022-08-20T16:26:11;28.80;67.10
4374;DHT22;2201;51.100;6.814;2022-08-20T16:28:51;28.80;66.70
4374;DHT22;2201;51.100;6.814;2022-08-20T16:31:27;28.80;67.00
4374;DHT22;2201;51.100;6.814;2022-08-20T16:34:04;28.80;66.50
4374;DHT22;2201;51.100;6.814;2022-08-20T16:36:41;28.90;66.10
4374;DHT22;2201;51.100;6.814;2022-08-20T16:39:19;28.80;64.80
4374;DHT22;2201;51.100;6.814;2022-08-20T16:41:53;28.70;65.90
4374;DHT22;2201;51.100;6.814;2022-08-20T16:44:31;28.70;66.20
4374;DHT22;2201;51.100;6.814;2022-08-20T16:47:10;28.60;65.70
4374;DHT22;2201;51.100;6.814;2022-08-20T16:49:47;28.50;66.30
4374;DHT22;2201;51.100;6.814;2022-08-20T16:52:16;28.40;66.30
4374;DHT22;2201;51.100;6.814;2022-08-20T16:54:44;28.30;66.60
4374;DHT22;2201;51.100;6.814;2022-08-20T16:57:16;28.20;66.40
4374;DHT22;2201;51.100;6.814;2022-08-20T16:59:58;28.10;66.50
4374;DHT22;2201;51.100;6.814;2022-08-20T17:02:32;28.00;66.80
4374;DHT22;2201;51.100;6.814;2022-08-20T17:05:01;27.90;66.20
4374;DHT22;2201;51.100;6.814;2022-08-20T17:07:44;27.80;67.00
4374;DHT22;2201;51.100;6.814;2022-08-20T17:10:18;27.70;67.20
4374;DHT22;2201;51.100;6.814;2022-08-20T17:12:54;27.60;67.40
4374;DHT22;2201;51.100;6.814;2022-08-20T17:15:27;27.30;68.00
4374;DHT22;2201;51.100;6.814;2022-08-20T17:17:55;27.20;68.40
4374;DHT22;2201;51.100;6.814;2022-08-20T17:20:24;27.00;68.50
4374;DHT22;2201;51.100;6.814;2022-08-20T17:22:54;26.80;68.60
4374;DHT22;2201;51.100;6.814;2022-08-20T17:25:34;26.70;68.60